Time;durP1;ratioP1;P1;durP2;ratioP2;P2;SDS_P1;SDS_P2;PMS_P1;PMS_P2;Temp;Humidity;BMP_temperature;BMP_pressure;BME280_temperature;BME280_humidity;BME280_pressure;Samples;Min_cycle;Max_cycle;Signal;HPM_P1;HPM_P2
2023/11/02 00:00:54;;;;;;;2.70;0.60;;;13.20;99.90;;;;;;2106286;28;20102;-74
2023/11/02 00:01:55;;;;;;;2.17;0.80;;;13.20;99.90;;;;;;2107376;28;20038;-73
2023/11/02 00:02:57;;;;;;;2.67;1.00;;;13.20;99.90;;;;;;2108552;28;20020;-73
2023/11/02 00:03:58;;;;;;;2.95;0.95;;;13.20;99.90;;;;;;2097277;28;20357;-74
2023/11/02 00:04:59;;;;;;;1.92;0.70;;;13.20;99.90;;;;;;2097014;28;20032;-73
2023/11/02 00:06:20;;;;;;;2.85;0.80;;;13.20;99.90;;;;;;2105429;28;20475;-73
2023/11/02 00:07:21;;;;;;;4.63;0.80;;;13.20;99.90;;;;;;2108091;28;20123;-73
2023/11/02 00:08:24;;;;;;;3.65;0.93;;;13.10;99.90;;;;;;2098678;28;20028;-74
2023/11/02 00:09:32;;;;;;;1.90;0.95;;;13.20;99.90;;;;;;2099240;28;20062;-73
2023/11/02 00:10:33;;;;;;;2.70;0.80;;;13.10;99.90;;;;;;2106729;28;20038;-74
2023/11/02 00:11:53;;;;;;;3.10;1.05;;;13.10;99.90;;;;;;2106122;28;20023;-74
2023/11/02 00:12:54;;;;;;;3.72;1.15;;;13.10;99.90;;;;;;2105280;28;20027;-73
2023/11/02 00:13:54;;;;;;;5.80;1.02;;;13.10;99.90;;;;;;2106963;28;20062;-73
2023/11/02 00:14:56;;;;;;;5.00;1.35;;;13.10;99.90;;;;;;2107062;28;20028;-74
2023/11/02 00:15:57;;;;;;;1.55;0.70;;;13.10;99.90;;;;;;2105999;28;20023;-73
2023/11/02 00:16:57;;;;;;;2.70;0.68;;;13.10;99.90;;;;;;2105598;28;20028;-73
2023/11/02 00:18:01;;;;;;;4.35;0.68;;;13.10;99.90;;;;;;2099806;28;20028;-74
2023/11/02 00:19:03;;;;;;;1.65;0.90;;;13.10;99.90;;;;;;2098697;28;20024;-74
2023/11/02 00:20:07;;;;;;;1.92;0.70;;;13.00;99.90;;;;;;2106723;28;20054;-73
2023/11/02 00:21:16;;;;;;;2.38;0.90;;;13.10;99.90;;;;;;2108462;28;20043;-74
2023/11/02 00:22:16;;;;;;;4.57;0.95;;;13.00;99.90;;;;;;2106973;28;20059;-73
2023/11/02 00:23:43;;;;;;;1.92;0.60;;;13.00;99.90;;;;;;2107596;28;20028;-73
2023/11/02 00:24:44;;;;;;;3.30;0.80;;;13.00;99.90;;;;;;2104818;28;20031;-73
2023/11/02 00:25:57;;;;;;;3.47;1.13;;;12.90;99.90;;;;;;2107399;28;20032;-73
2023/11/02 00:26:57;;;;;;;2.05;0.68;;;13.00;99.90;;;;;;2106741;28;20003;-73
2023/11/02 00:27:58;;;;;;;2.35;1.10;;;13.00;99.90;;;;;;2105422;28;20020;-73
2023/11/02 00:28:58;;;;;;;4.05;1.25;;;12.90;99.90;;;;;;2109432;28;20061;-73
2023/11/02 00:29:59;;;;;;;2.58;1.00;;;12.90;99.90;;;;;;2108380;28;20116;-73
2023/11/02 00:31:00;;;;;;;2.72;0.80;;;12.90;99.90;;;;;;2103350;28;20495;-73
2023/11/02 00:32:01;;;;;;;4.18;0.98;;;12.90;99.90;;;;;;2097106;28;20112;-74
2023/11/02 00:33:01;;;;;;;2.15;0.90;;;12.90;99.90;;;;;;2099716;28;20067;-73
2023/11/02 00:34:02;;;;;;;1.30;0.68;;;12.90;99.90;;;;;;2108331;28;20031;-74
2023/11/02 00:35:03;;;;;;;3.28;0.57;;;12.90;99.90;;;;;;2104332;28;20020;-74
2023/11/02 00:36:08;;;;;;;4.47;0.70;;;12.90;99.90;;;;;;2107173;28;20107;-74
2023/11/02 00:37:08;;;;;;;1.65;0.82;;;13.00;99.90;;;;;;2106387;28;20507;-74
2023/11/02 00:38:09;;;;;;;4.13;0.85;;;12.90;99.90;;;;;;2106328;28;20453;-74
2023/11/02 00:39:09;;;;;;;4.28;0.95;;;12.90;99.90;;;;;;2107146;28;20888;-73
2023/11/02 00:40:12;;;;;;;0.93;0.80;;;12.90;99.90;;;;;;2105073;28;20028;-72
2023/11/02 00:41:13;;;;;;;1.70;1.02;;;12.90;99.90;;;;;;2098413;28;20021;-73
2023/11/02 00:42:15;;;;;;;3.20;0.70;;;12.90;99.90;;;;;;2102609;28;20032;-73
2023/11/02 00:43:18;;;;;;;2.30;0.70;;;12.90;99.90;;;;;;2105403;28;20612;-73
2023/11/02 00:44:20;;;;;;;2.05;0.80;;;12.90;99.90;;;;;;2106504;28;20024;-74
2023/11/02 00:45:20;;;;;;;1.50;0.57;;;12.90;99.90;;;;;;2106307;28;20455;-74
2023/11/02 00:46:21;;;;;;;2.78;0.82;;;12.90;99.90;;;;;;2105337;28;20095;-73
2023/11/02 00:47:22;;;;;;;1.65;0.50;;;12.90;99.90;;;;;;2106047;28;20080;-74
2023/11/02 00:48:29;;;;;;;2.22;0.80;;;12.90;99.90;;;;;;2099534;28;20162;-74
2023/11/02 00:49:35;;;;;;;1.42;0.60;;;12.90;99.90;;;;;;2100897;28;20037;-72
2023/11/02 00:50:47;;;;;;;1.15;0.57;;;12.80;99.90;;;;;;2104956;28;20169;-73
2023/11/02 00:51:55;;;;;;;3.80;0.95;;;12.80;99.90;;;;;;2098042;28;20582;-74
2023/11/02 00:52:55;;;;;;;4.50;1.25;;;12.80;99.90;;;;;;2100156;28;20095;-73
2023/11/02 00:53:56;;;;;;;1.95;0.73;;;12.80;99.90;;;;;;2106059;28;20118;-73
2023/11/02 00:55:00;;;;;;;5.72;0.93;;;12.80;99.90;;;;;;2106549;28;20036;-73
2023/11/02 00:56:05;;;;;;;3.13;0.80;;;12.80;99.90;;;;;;2106217;28;20027;-73
2023/11/02 00:57:06;;;;;;;5.05;1.38;;;12.80;99.90;;;;;;2108380;28;20455;-73
2023/11/02 00:58:16;;;;;;;3.80;1.08;;;12.80;99.90;;;;;;2107308;28;20412;-73
2023/11/02 00:59:18;;;;;;;2.28;0.77;;;12.80;99.90;;;;;;2106015;28;20588;-74
2023/11/02 01:00:52;;;;;;;1.42;0.50;;;12.70;99.90;;;;;;2096410;28;20040;-73
2023/11/02 01:01:52;;;;;;;3.17;0.80;;;12.70;99.90;;;;;;2102162;28;20038;-74
2023/11/02 01:02:53;;;;;;;3.03;1.00;;;12.70;99.90;;;;;;2106905;28;20023;-72
2023/11/02 01:04:05;;;;;;;2.22;0.82;;;12.70;99.90;;;;;;2105487;28;20070;-73
2023/11/02 01:05:26;;;;;;;2.65;0.80;;;12.70;99.90;;;;;;2107059;28;20020;-73
2023/11/02 01:06:29;;;;;;;2.08;0.80;;;12.70;99.90;;;;;;2100103;28;20883;-73
2023/11/02 01:07:33;;;;;;;3.30;0.80;;;12.70;99.90;;;;;;2102818;28;20116;-73
2023/11/02 01:08:33;;;;;;;3.58;0.77;;;12.70;99.90;;;;;;2098550;28;20093;-73
2023/11/02 01:10:00;;;;;;;5.20;0.85;;;12.70;99.90;;;;;;2106610;28;20115;-73
2023/11/02 01:11:01;;;;;;;5.32;0.98;;;12.70;99.90;;;;;;2106394;28;20401;-73
2023/11/02 01:12:05;;;;;;;1.05;0.60;;;12.60;99.90;;;;;;2107410;28;20024;-73
2023/11/02 01:13:15;;;;;;;4.28;0.82;;;12.70;99.90;;;;;;2107475;28;20840;-73
2023/11/02 01:14:45;;;;;;;3.72;0.75;;;12.70;99.90;;;;;;2106423;28;20035;-72
2023/11/02 01:15:57;;;;;;;3.40;0.73;;;12.70;99.90;;;;;;2106207;28;20028;-73
2023/11/02 01:16:58;;;;;;;2.10;0.70;;;12.70;99.90;;;;;;2104977;28;20028;-73
2023/11/02 01:17:58;;;;;;;2.40;1.05;;;12.70;99.90;;;;;;2105634;28;20039;-73
2023/11/02 01:18:59;;;;;;;2.65;1.10;;;12.70;99.90;;;;;;2106472;28;20069;-73
2023/11/02 01:20:09;;;;;;;1.05;0.55;;;12.70;99.90;;;;;;2108069;28;20133;-74
2023/11/02 01:21:11;;;;;;;2.97;0.73;;;12.70;99.90;;;;;;2105652;28;20741;-74
2023/11/02 01:22:30;;;;;;;1.73;0.60;;;12.70;99.90;;;;;;2107550;28;20066;-74
2023/11/02 01:23:32;;;;;;;3.05;0.80;;;12.70;99.90;;;;;;2106083;28;20027;-73
2023/11/02 01:24:35;;;;;;;1.50;0.80;;;12.70;99.90;;;;;;2105800;28;20166;-73
2023/11/02 01:25:46;;;;;;;4.28;1.08;;;12.70;99.90;;;;;;2104434;28;20120;-73
2023/11/02 01:27:00;;;;;;;1.92;0.60;;;12.70;99.90;;;;;;2104371;28;20038;-73
2023/11/02 01:28:06;;;;;;;2.28;0.73;;;12.70;99.90;;;;;;2106190;28;20035;-73
2023/11/02 01:29:06;;;;;;;2.55;1.00;;;12.70;99.90;;;;;;2105986;28;20597;-74
2023/11/02 01:30:32;;;;;;;1.75;0.98;;;12.70;99.90;;;;;;2106142;28;20104;-74
2023/11/02 01:31:35;;;;;;;3.10;0.77;;;12.80;99.90;;;;;;2097047;28;20020;-73
2023/11/02 01:32:36;;;;;;;3.85;0.68;;;12.70;99.90;;;;;;2095425;28;20093;-75
2023/11/02 01:33:36;;;;;;;3.10;0.70;;;12.70;99.90;;;;;;2105146;28;20028;-74
2023/11/02 01:34:37;;;;;;;3.55;1.05;;;12.80;99.90;;;;;;2106681;28;20035;-73
2023/11/02 01:35:43;;;;;;;1.83;0.80;;;12.80;99.90;;;;;;2106820;28;20032;-74
2023/11/02 01:36:44;;;;;;;2.47;0.70;;;12.80;99.90;;;;;;2106772;28;20032;-74
2023/11/02 01:37:47;;;;;;;1.58;0.60;;;12.80;99.90;;;;;;2106542;28;20165;-74
2023/11/02 01:38:54;;;;;;;2.50;1.10;;;12.80;99.90;;;;;;2106832;28;20102;-74
2023/11/02 01:40:08;;;;;;;2.60;0.88;;;12.90;99.90;;;;;;2106576;28;20019;-75
2023/11/02 01:41:13;;;;;;;2.22;0.65;;;12.80;99.90;;;;;;2107009;28;20075;-74
2023/11/02 01:42:26;;;;;;;2.58;0.82;;;12.80;99.90;;;;;;2100387;28;20024;-74
2023/11/02 01:43:43;;;;;;;2.38;0.85;;;12.80;99.90;;;;;;2101096;28;20051;-74
2023/11/02 01:44:54;;;;;;;4.82;0.93;;;12.80;99.90;;;;;;2107151;28;20027;-74
2023/11/02 01:45:59;;;;;;;2.72;0.75;;;12.80;99.90;;;;;;2104076;28;20031;-74
2023/11/02 01:47:01;;;;;;;2.70;1.08;;;12.80;99.90;;;;;;2106506;28;20016;-74
2023/11/02 01:48:06;;;;;;;2.30;0.65;;;12.80;99.90;;;;;;2105194;28;20458;-74
2023/11/02 01:49:10;;;;;;;2.92;0.95;;;12.80;99.90;;;;;;2105744;28;20074;-74
2023/11/02 01:50:32;;;;;;;2.85;0.73;;;12.80;99.90;;;;;;2108481;28;20027;-74
2023/11/02 01:51:38;;;;;;;2.05;0.70;;;12.80;99.90;;;;;;2104038;28;20058;-74
2023/11/02 01:52:38;;;;;;;2.35;0.70;;;12.90;99.90;;;;;;2107465;28;20024;-74
2023/11/02 01:54:06;;;;;;;1.65;0.98;;;12.90;99.90;;;;;;2097903;28;20024;-74
2023/11/02 01:55:19;;;;;;;2.25;0.70;;;12.90;99.90;;;;;;2101587;28;20031;-74
2023/11/02 01:56:53;;;;;;;1.85;0.80;;;12.90;99.90;;;;;;2107172;28;20057;-74
2023/11/02 01:58:08;;;;;;;4.05;0.90;;;12.90;99.90;;;;;;2107031;28;20078;-74
2023/11/02 01:59:36;;;;;;;4.20;0.60;;;12.90;99.90;;;;;;2105250;28;20055;-74
2023/11/02 02:00:54;;;;;;;3.08;0.80;;;12.90;99.90;;;;;;2107601;28;20024;-75
2023/11/02 02:02:08;;;;;;;2.42;0.90;;;12.90;99.90;;;;;;2106305;28;20058;-75
2023/11/02 02:03:27;;;;;;;4.00;1.13;;;12.90;99.90;;;;;;2101213;28;20024;-74
2023/11/02 02:04:39;;;;;;;1.50;0.80;;;12.90;99.90;;;;;;2103294;28;20408;-73
2023/11/02 02:05:50;;;;;;;3.22;0.80;;;12.90;99.90;;;;;;2105738;28;20020;-74
2023/11/02 02:07:28;;;;;;;5.82;1.33;;;13.00;99.90;;;;;;2105724;28;20427;-74
2023/11/02 02:08:55;;;;;;;2.85;1.00;;;13.00;99.90;;;;;;2105497;28;20039;-74
2023/11/02 02:10:12;;;;;;;1.88;0.70;;;12.90;99.90;;;;;;2106409;28;20740;-73
2023/11/02 02:11:39;;;;;;;2.97;1.30;;;12.90;99.90;;;;;;2106817;28;20068;-73
2023/11/02 02:13:06;;;;;;;3.70;1.02;;;12.90;99.90;;;;;;2107143;28;20028;-73
2023/11/02 02:14:36;;;;;;;2.17;0.80;;;12.90;99.90;;;;;;2106577;28;20016;-74
2023/11/02 02:15:40;;;;;;;2.70;1.00;;;12.90;99.90;;;;;;2105481;28;20028;-74
2023/11/02 02:16:58;;;;;;;3.97;1.27;;;12.90;99.90;;;;;;2099728;28;20074;-74
2023/11/02 02:18:30;;;;;;;8.75;1.08;;;12.90;99.90;;;;;;2102237;28;20058;-74
2023/11/02 02:19:31;;;;;;;1.08;0.73;;;12.90;99.90;;;;;;2105423;28;20109;-74
2023/11/02 02:20:34;;;;;;;5.00;1.10;;;12.90;99.90;;;;;;2105447;28;20028;-73
2023/11/02 02:21:57;;;;;;;5.50;0.75;;;12.90;99.90;;;;;;2108287;28;20031;-74
2023/11/02 02:23:24;;;;;;;2.30;0.90;;;12.90;99.90;;;;;;2105941;28;20046;-74
2023/11/02 02:24:56;;;;;;;5.47;1.10;;;12.90;99.90;;;;;;2107657;28;20491;-74
2023/11/02 02:26:03;;;;;;;4.82;1.00;;;12.90;99.90;;;;;;2104874;28;20536;-74
2023/11/02 02:27:06;;;;;;;5.97;1.45;;;12.90;99.90;;;;;;2099103;28;20032;-73
2023/11/02 02:28:29;;;;;;;1.83;0.80;;;12.90;99.90;;;;;;2096362;28;20016;-75
2023/11/02 02:29:56;;;;;;;1.95;1.02;;;12.90;99.90;;;;;;2104603;28;20027;-74
2023/11/02 02:31:03;;;;;;;4.15;1.27;;;12.90;99.90;;;;;;2105872;28;20040;-74
2023/11/02 02:32:30;;;;;;;2.20;1.10;;;12.90;99.90;;;;;;2107059;28;20021;-74
2023/11/02 02:33:50;;;;;;;2.58;0.77;;;12.90;99.90;;;;;;2103754;28;20028;-74
2023/11/02 02:35:06;;;;;;;3.65;1.00;;;12.90;99.90;;;;;;2107131;28;20020;-73
2023/11/02 02:36:18;;;;;;;2.33;1.05;;;12.90;99.90;;;;;;2106950;28;20024;-73
2023/11/02 02:37:24;;;;;;;2.15;1.02;;;12.90;99.90;;;;;;2107721;28;20024;-74
2023/11/02 02:38:39;;;;;;;2.08;0.90;;;12.90;99.90;;;;;;2101231;28;20028;-74
2023/11/02 02:39:44;;;;;;;3.85;0.90;;;12.90;99.90;;;;;;2102217;28;20071;-73
2023/11/02 02:41:03;;;;;;;1.98;0.93;;;12.90;99.90;;;;;;2105889;28;20024;-75
2023/11/02 02:42:07;;;;;;;5.90;1.23;;;12.90;99.90;;;;;;2106116;28;20020;-74
2023/11/02 02:43:11;;;;;;;4.30;1.15;;;12.90;99.90;;;;;;2104504;28;20352;-74
2023/11/02 02:44:15;;;;;;;3.05;0.95;;;12.90;99.90;;;;;;2104865;28;20044;-74
2023/11/02 02:45:16;;;;;;;2.47;1.10;;;12.90;99.90;;;;;;2107326;28;20059;-74
2023/11/02 02:46:21;;;;;;;3.40;1.42;;;12.90;99.90;;;;;;2105335;28;20039;-74
2023/11/02 02:47:23;;;;;;;5.72;1.17;;;12.90;99.90;;;;;;2107062;28;20382;-74
2023/11/02 02:48:26;;;;;;;2.17;0.82;;;13.00;99.90;;;;;;2105529;28;20106;-74
2023/11/02 02:49:33;;;;;;;7.45;1.20;;;12.90;99.90;;;;;;2106953;28;20028;-73
2023/11/02 02:50:37;;;;;;;3.05;0.90;;;12.90;99.90;;;;;;2096411;28;20028;-74
2023/11/02 02:51:44;;;;;;;3.38;1.38;;;12.90;99.90;;;;;;2098275;28;20028;-74
2023/11/02 02:52:48;;;;;;;2.55;0.85;;;12.90;99.90;;;;;;2107022;28;20040;-74
2023/11/02 02:53:51;;;;;;;3.55;0.82;;;12.90;99.90;;;;;;2106483;28;20106;-74
2023/11/02 02:54:53;;;;;;;4.15;1.17;;;12.90;99.90;;;;;;2106818;28;20028;-74
2023/11/02 02:56:07;;;;;;;2.28;1.00;;;12.90;99.90;;;;;;2107761;28;20032;-75
2023/11/02 02:57:11;;;;;;;2.17;0.80;;;12.90;99.90;;;;;;2106418;28;20020;-74
2023/11/02 02:58:13;;;;;;;1.90;0.90;;;12.90;99.90;;;;;;2104745;28;20077;-74
2023/11/02 02:59:20;;;;;;;3.58;1.20;;;12.90;99.90;;;;;;2105777;28;20140;-74
2023/11/02 03:00:23;;;;;;;2.22;1.40;;;13.00;99.90;;;;;;2106632;28;20024;-74
2023/11/02 03:01:28;;;;;;;4.25;0.98;;;13.00;99.90;;;;;;2097212;28;20021;-74
2023/11/02 03:02:31;;;;;;;4.15;1.20;;;13.00;99.90;;;;;;2100592;28;20009;-75
2023/11/02 03:03:35;;;;;;;5.93;1.20;;;13.00;99.90;;;;;;2108205;28;20021;-74
2023/11/02 03:04:36;;;;;;;2.72;1.20;;;13.00;99.90;;;;;;2107930;28;20035;-74
2023/11/02 03:05:37;;;;;;;4.00;1.52;;;13.00;99.90;;;;;;2105831;28;20031;-74
2023/11/02 03:06:45;;;;;;;4.00;0.90;;;13.00;99.90;;;;;;2107798;28;20052;-73
2023/11/02 03:07:53;;;;;;;2.78;1.02;;;13.00;99.90;;;;;;2106898;28;20032;-76
2023/11/02 03:08:56;;;;;;;4.30;1.17;;;13.00;99.90;;;;;;2108968;28;20020;-75
2023/11/02 03:10:02;;;;;;;1.85;1.00;;;13.00;99.90;;;;;;2107346;28;20028;-74
2023/11/02 03:11:04;;;;;;;4.00;0.90;;;13.00;99.90;;;;;;2110047;28;20041;-74
2023/11/02 03:12:08;;;;;;;2.50;0.88;;;13.00;99.90;;;;;;2107560;28;20056;-74
2023/11/02 03:13:13;;;;;;;2.78;1.10;;;13.00;99.90;;;;;;2108097;28;20024;-74
2023/11/02 03:14:16;;;;;;;3.30;0.90;;;13.00;99.90;;;;;;2106732;28;20027;-74
2023/11/02 03:15:20;;;;;;;3.75;1.23;;;13.00;99.90;;;;;;2108312;28;20028;-74
2023/11/02 03:16:23;;;;;;;4.47;0.85;;;13.00;99.90;;;;;;2107798;28;20597;-74
2023/11/02 03:17:35;;;;;;;1.90;0.75;;;13.00;99.90;;;;;;2107925;28;20047;-75
2023/11/02 03:18:38;;;;;;;2.90;1.10;;;13.00;99.90;;;;;;2107782;28;20032;-74
2023/11/02 03:19:44;;;;;;;3.90;1.10;;;13.00;99.90;;;;;;2110880;28;20016;-73
2023/11/02 03:20:47;;;;;;;5.07;1.10;;;13.00;99.90;;;;;;2106535;28;20055;-74
2023/11/02 03:21:48;;;;;;;1.77;0.80;;;13.00;99.90;;;;;;2106733;28;20020;-74
2023/11/02 03:22:48;;;;;;;3.83;1.10;;;13.00;99.90;;;;;;2107435;28;20128;-74
2023/11/02 03:24:06;;;;;;;4.55;1.38;;;13.00;99.90;;;;;;2108284;28;20016;-74
2023/11/02 03:25:12;;;;;;;3.45;1.05;;;13.00;99.90;;;;;;2109587;28;20462;-75
2023/11/02 03:26:53;;;;;;;2.53;0.93;;;13.00;99.90;;;;;;2106827;28;20024;-75
2023/11/02 03:28:22;;;;;;;3.30;1.00;;;13.00;99.90;;;;;;2106701;28;20088;-75
2023/11/02 03:29:40;;;;;;;3.67;0.90;;;13.00;99.90;;;;;;2107719;28;20054;-73
2023/11/02 03:30:54;;;;;;;5.10;1.13;;;13.00;99.90;;;;;;2108563;28;20135;-74
2023/11/02 03:31:57;;;;;;;1.15;1.00;;;13.00;99.90;;;;;;2106380;28;20016;-73
2023/11/02 03:33:18;;;;;;;3.85;0.80;;;13.00;99.90;;;;;;2107063;28;20055;-74
2023/11/02 03:34:24;;;;;;;;;;;13.00;99.90;;;;;;2109053;28;20151;-75
2023/11/02 03:35:42;;;;;;;5.97;1.38;;;13.00;99.90;;;;;;2106429;28;19907;-73
2023/11/02 03:36:43;;;;;;;8.13;2.03;;;13.00;99.90;;;;;;2108784;28;20076;-74
2023/11/02 03:38:13;;;;;;;4.88;0.90;;;13.00;99.90;;;;;;2108208;28;20023;-75
2023/11/02 03:39:28;;;;;;;3.30;1.20;;;13.10;99.90;;;;;;2108916;28;20020;-74
2023/11/02 03:41:00;;;;;;;2.75;1.08;;;13.00;99.90;;;;;;2109004;28;20052;-74
2023/11/02 03:42:04;;;;;;;2.40;0.82;;;13.10;99.90;;;;;;2106307;28;20444;-73
2023/11/02 03:43:11;;;;;;;3.92;1.42;;;13.00;99.90;;;;;;2099915;28;20016;-75
2023/11/02 03:44:36;;;;;;;3.55;1.45;;;13.10;99.90;;;;;;2101524;28;20155;-75
2023/11/02 03:45:58;;;;;;;2.85;0.80;;;13.00;99.90;;;;;;2107405;28;20023;-73
2023/11/02 03:47:44;;;;;;;2.65;0.95;;;13.10;99.90;;;;;;2106787;28;20020;-73
2023/11/02 03:48:50;;;;;;;4.60;1.00;;;13.00;99.90;;;;;;2108302;28;20031;-75
2023/11/02 03:49:51;;;;;;;2.72;1.33;;;13.00;99.90;;;;;;2102171;28;20445;-74
2023/11/02 03:51:15;;;;;;;3.60;0.90;;;13.10;99.90;;;;;;2103938;28;20078;-74
2023/11/02 03:52:42;;;;;;;4.15;1.05;;;13.00;99.90;;;;;;2108948;28;20047;-74
2023/11/02 03:54:03;;;;;;;2.55;1.05;;;13.10;99.90;;;;;;2065356;28;20050;-74
2023/11/02 03:55:15;;;;;;;2.13;0.77;;;13.10;99.90;;;;;;2106167;28;20058;-75
2023/11/02 03:56:48;;;;;;;3.13;0.75;;;13.10;99.90;;;;;;2107254;28;20020;-75
2023/11/02 03:58:01;;;;;;;3.45;1.00;;;13.10;99.90;;;;;;2108759;28;20035;-74
2023/11/02 03:59:11;;;;;;;3.42;1.10;;;13.10;99.90;;;;;;2108215;28;20032;-75
2023/11/02 04:00:15;;;;;;;3.10;0.88;;;13.10;99.90;;;;;;2110119;28;20042;-74
2023/11/02 04:01:27;;;;;;;3.38;1.00;;;13.00;99.90;;;;;;2106656;28;20020;-74
2023/11/02 04:02:34;;;;;;;3.80;1.13;;;13.10;99.90;;;;;;2109513;27;20497;-75
2023/11/02 04:03:42;;;;;;;3.78;1.00;;;13.10;99.90;;;;;;2109527;28;20615;-73
2023/11/02 04:05:24;;;;;;;4.07;0.75;;;13.10;99.90;;;;;;2106512;28;20121;-74
2023/11/02 04:06:40;;;;;;;4.20;1.48;;;13.10;99.90;;;;;;2102805;28;20032;-74
2023/11/02 04:08:15;;;;;;;2.83;1.05;;;13.10;99.90;;;;;;2107593;28;20513;-73
2023/11/02 04:09:20;;;;;;;3.25;1.10;;;13.10;99.90;;;;;;2097151;28;20130;-74
2023/11/02 04:10:26;;;;;;;1.95;0.93;;;13.00;99.90;;;;;;2106284;28;20077;-74
2023/11/02 04:11:29;;;;;;;5.28;1.00;;;13.00;99.90;;;;;;2106177;28;20031;-74
2023/11/02 04:12:39;;;;;;;6.60;1.33;;;13.00;99.90;;;;;;2107770;28;20027;-74
2023/11/02 04:13:47;;;;;;;;;;;13.00;99.90;;;;;;2107307;28;20562;-74
2023/11/02 04:14:51;;;;;;;2.40;1.00;;;13.00;99.90;;;;;;2106893;28;19911;-74
2023/11/02 04:15:52;;;;;;;4.55;1.17;;;13.00;99.90;;;;;;2106846;28;20055;-75
2023/11/02 04:16:53;;;;;;;3.95;1.00;;;13.00;99.90;;;;;;2109074;28;20032;-74
2023/11/02 04:17:54;;;;;;;2.47;1.00;;;13.00;99.90;;;;;;2107970;28;20024;-74
2023/11/02 04:18:54;;;;;;;4.90;1.10;;;13.10;99.90;;;;;;2106323;28;20031;-75
2023/11/02 04:19:56;;;;;;;2.75;1.00;;;13.10;99.90;;;;;;2108732;28;20098;-74
2023/11/02 04:20:57;;;;;;;5.93;1.20;;;13.10;99.90;;;;;;2097304;28;20020;-74
2023/11/02 04:21:57;;;;;;;3.10;0.98;;;13.10;99.90;;;;;;2098631;28;20046;-74
2023/11/02 04:22:58;;;;;;;1.58;0.80;;;13.00;99.90;;;;;;2108563;28;20064;-74
2023/11/02 04:23:59;;;;;;;3.13;1.10;;;13.10;99.90;;;;;;2105732;28;20036;-73
2023/11/02 04:25:00;;;;;;;3.60;1.10;;;13.10;99.90;;;;;;2107814;28;20708;-74
2023/11/02 04:26:00;;;;;;;6.53;1.30;;;13.10;99.90;;;;;;2105771;28;20020;-75
2023/11/02 04:27:01;;;;;;;3.95;1.10;;;13.00;99.90;;;;;;2097932;28;20024;-75
2023/11/02 04:28:01;;;;;;;8.18;1.00;;;13.10;99.90;;;;;;2098478;28;20020;-73
2023/11/02 04:29:02;;;;;;;2.35;0.98;;;13.10;99.90;;;;;;2109019;28;20027;-74
2023/11/02 04:30:03;;;;;;;3.70;0.90;;;13.10;99.90;;;;;;2108609;28;20039;-73
2023/11/02 04:31:04;;;;;;;3.17;0.88;;;13.10;99.90;;;;;;2109368;28;20051;-75
2023/11/02 04:32:05;;;;;;;4.90;1.38;;;13.10;99.90;;;;;;2107281;28;20024;-74
2023/11/02 04:33:06;;;;;;;4.30;1.05;;;13.10;99.90;;;;;;2109613;28;20016;-74
2023/11/02 04:34:08;;;;;;;2.15;0.88;;;13.10;99.90;;;;;;2106926;28;20078;-75
2023/11/02 04:35:10;;;;;;;3.28;1.35;;;13.10;99.90;;;;;;2106476;28;20024;-76
2023/11/02 04:36:11;;;;;;;4.32;1.13;;;13.20;99.90;;;;;;2107298;28;20032;-73
2023/11/02 04:37:13;;;;;;;5.05;1.45;;;13.10;99.90;;;;;;2106454;28;20059;-75
2023/11/02 04:38:14;;;;;;;2.95;1.00;;;13.20;99.90;;;;;;2108152;28;20020;-74
2023/11/02 04:39:14;;;;;;;2.88;0.95;;;13.20;99.90;;;;;;2106802;28;20635;-74
2023/11/02 04:40:15;;;;;;;4.07;1.42;;;13.10;99.90;;;;;;2107458;28;20023;-75
2023/11/02 04:41:16;;;;;;;2.95;0.90;;;13.20;99.90;;;;;;2106962;28;20046;-74
2023/11/02 04:42:21;;;;;;;3.25;1.15;;;13.20;99.90;;;;;;2106457;28;20416;-74
2023/11/02 04:43:21;;;;;;;2.53;0.95;;;13.10;99.90;;;;;;2106150;28;20050;-73
2023/11/02 04:44:22;;;;;;;2.50;0.95;;;13.10;99.90;;;;;;2107642;28;20482;-75
2023/11/02 04:45:22;;;;;;;4.88;1.83;;;13.20;99.90;;;;;;2106877;28;20098;-74
2023/11/02 04:46:23;;;;;;;3.95;1.45;;;13.20;99.90;;;;;;2105444;28;20108;-74
2023/11/02 04:47:23;;;;;;;1.70;1.00;;;13.20;99.90;;;;;;2105798;28;20129;-73
2023/11/02 04:48:24;;;;;;;3.88;0.90;;;13.20;99.90;;;;;;2097804;28;20103;-74
2023/11/02 04:49:24;;;;;;;4.65;0.93;;;13.20;99.90;;;;;;2098277;28;20446;-74
2023/11/02 04:50:27;;;;;;;4.43;1.25;;;13.10;99.90;;;;;;2105556;28;20043;-75
2023/11/02 04:51:27;;;;;;;2.58;1.08;;;13.20;99.90;;;;;;2105817;28;20032;-74
2023/11/02 04:52:35;;;;;;;3.85;1.08;;;13.20;99.90;;;;;;2106269;28;20488;-74
2023/11/02 04:53:36;;;;;;;3.42;0.98;;;13.20;99.90;;;;;;2106253;28;20559;-73
2023/11/02 04:54:36;;;;;;;2.95;0.95;;;13.20;99.90;;;;;;2099946;28;20448;-73
2023/11/02 04:55:38;;;;;;;5.57;1.25;;;13.20;99.90;;;;;;2098440;28;20064;-74
2023/11/02 04:56:38;;;;;;;3.20;0.80;;;13.20;99.90;;;;;;2098796;28;20028;-73
2023/11/02 04:57:39;;;;;;;4.65;1.30;;;13.20;99.90;;;;;;2092035;28;20036;-74
2023/11/02 04:58:39;;;;;;;4.40;0.82;;;13.20;99.90;;;;;;2099888;28;20048;-73
2023/11/02 04:59:43;;;;;;;2.97;1.00;;;13.20;99.90;;;;;;2107457;28;20108;-74
2023/11/02 05:00:44;;;;;;;4.22;0.80;;;13.20;99.90;;;;;;2106096;28;20024;-73
2023/11/02 05:01:44;;;;;;;5.03;1.50;;;13.20;99.90;;;;;;2107545;28;20673;-73
2023/11/02 05:02:45;;;;;;;3.58;0.98;;;13.20;99.90;;;;;;2101406;28;20031;-74
2023/11/02 05:03:46;;;;;;;1.98;0.65;;;13.20;99.90;;;;;;2100084;28;20099;-74
2023/11/02 05:04:46;;;;;;;2.53;0.85;;;13.20;99.90;;;;;;2105778;28;20035;-73
2023/11/02 05:05:47;;;;;;;2.45;0.70;;;13.10;99.90;;;;;;2106308;28;20056;-74
2023/11/02 05:06:47;;;;;;;4.63;0.90;;;13.10;99.90;;;;;;2098362;28;20475;-74
2023/11/02 05:07:48;;;;;;;2.25;0.80;;;13.10;99.90;;;;;;2097523;28;20059;-75
2023/11/02 05:08:48;;;;;;;4.25;1.02;;;13.10;99.90;;;;;;2106785;28;20047;-73
2023/11/02 05:09:49;;;;;;;1.80;0.82;;;13.10;99.90;;;;;;2101208;28;20043;-74
2023/11/02 05:10:50;;;;;;;3.42;1.10;;;13.10;99.90;;;;;;2102881;28;20461;-74
2023/11/02 05:11:51;;;;;;;1.77;0.90;;;13.10;99.90;;;;;;2106532;28;20028;-74
2023/11/02 05:12:51;;;;;;;4.70;1.20;;;13.10;99.90;;;;;;2106600;28;20020;-74
2023/11/02 05:13:52;;;;;;;1.98;0.90;;;13.10;99.90;;;;;;2107470;28;20146;-74
2023/11/02 05:14:52;;;;;;;5.00;1.00;;;13.10;99.90;;;;;;2106403;28;20505;-74
2023/11/02 05:15:57;;;;;;;3.80;0.85;;;13.20;99.90;;;;;;2107815;28;20027;-74
2023/11/02 05:16:58;;;;;;;4.22;1.00;;;13.10;99.90;;;;;;2105837;28;20034;-75
2023/11/02 05:17:58;;;;;;;2.85;0.85;;;13.10;99.90;;;;;;2105827;28;20034;-73
2023/11/02 05:18:59;;;;;;;1.30;0.77;;;13.10;99.90;;;;;;2107070;28;20062;-73
2023/11/02 05:20:00;;;;;;;2.63;0.90;;;13.10;99.90;;;;;;2107357;28;20047;-73
2023/11/02 05:21:00;;;;;;;5.05;1.15;;;13.10;99.90;;;;;;2107412;28;20024;-73
2023/11/02 05:22:01;;;;;;;1.75;0.70;;;13.20;99.90;;;;;;2108369;28;20502;-73
2023/11/02 05:23:01;;;;;;;5.10;0.77;;;13.20;99.90;;;;;;2106512;28;20101;-74
2023/11/02 05:24:03;;;;;;;3.85;0.88;;;13.20;99.90;;;;;;2106079;28;20081;-75
2023/11/02 05:25:04;;;;;;;3.03;0.80;;;13.10;99.90;;;;;;2107698;28;20128;-73
2023/11/02 05:26:05;;;;;;;6.40;1.02;;;13.20;99.90;;;;;;2107121;28;20486;-75
2023/11/02 05:27:05;;;;;;;4.60;1.08;;;13.20;99.90;;;;;;2106865;28;20383;-74
2023/11/02 05:28:07;;;;;;;5.18;1.00;;;13.20;99.90;;;;;;2107326;28;20027;-74
2023/11/02 05:29:07;;;;;;;6.15;0.85;;;13.20;99.90;;;;;;2106160;28;20126;-74
2023/11/02 05:30:08;;;;;;;3.97;0.95;;;13.20;99.90;;;;;;2104802;28;20020;-74
2023/11/02 05:31:09;;;;;;;2.38;1.02;;;13.20;99.90;;;;;;2108313;28;20340;-74
2023/11/02 05:32:09;;;;;;;1.88;0.70;;;13.20;99.90;;;;;;2107322;28;20180;-73
2023/11/02 05:33:10;;;;;;;3.03;0.98;;;13.30;99.90;;;;;;2101104;28;20069;-74
2023/11/02 05:34:11;;;;;;;2.17;0.77;;;13.30;99.90;;;;;;2101603;28;20020;-73
2023/11/02 05:35:12;;;;;;;2.50;0.70;;;13.30;99.90;;;;;;2107389;28;20024;-75
2023/11/02 05:36:13;;;;;;;3.25;1.02;;;13.30;99.90;;;;;;2105448;28;20069;-73
2023/11/02 05:37:13;;;;;;;2.13;0.98;;;13.30;99.90;;;;;;2107029;28;20560;-74
2023/11/02 05:38:14;;;;;;;3.03;1.00;;;13.30;99.90;;;;;;2106679;28;20016;-75
2023/11/02 05:39:14;;;;;;;4.32;1.33;;;13.30;99.90;;;;;;2105740;28;20051;-74
2023/11/02 05:40:15;;;;;;;4.13;1.00;;;13.30;99.90;;;;;;2106928;28;20028;-74
2023/11/02 05:41:15;;;;;;;1.75;0.80;;;13.30;99.90;;;;;;2107558;28;20508;-73
2023/11/02 05:42:16;;;;;;;5.15;1.15;;;13.30;99.90;;;;;;2106005;28;20103;-74
2023/11/02 05:43:16;;;;;;;2.00;1.00;;;13.30;99.90;;;;;;2107124;28;20554;-74
2023/11/02 05:44:17;;;;;;;2.63;0.80;;;13.30;99.90;;;;;;2106317;28;20020;-74
2023/11/02 05:45:19;;;;;;;1.25;0.55;;;13.30;99.90;;;;;;2105314;28;20027;-74
2023/11/02 05:46:19;;;;;;;2.40;1.00;;;13.30;99.90;;;;;;2098594;28;20032;-74
2023/11/02 05:47:20;;;;;;;7.05;1.20;;;13.30;99.90;;;;;;2097331;28;20016;-74
2023/11/02 05:48:21;;;;;;;2.75;0.98;;;13.30;99.90;;;;;;2107607;28;20107;-74
2023/11/02 05:49:22;;;;;;;2.38;0.95;;;13.20;99.90;;;;;;2106191;28;20110;-75